Sycamore Square, Virginia
Current Conditions -  °F | °C
As of 1:55 PM on Sunday 21 Dec 2014 (Local Time) from KFCI Reporting Station
Clear Clear  
Wind Chill: 45°   Ceiling: Unl
Heat Index: 45°   Visibility: 10mi
Dew Point: 21°   Wind: 3mph
Humidity: 39%   Direction: 110°ESE
Pressure: 30.29"   Gusts: NA
Location:  37.5382°N, 77.6692°W
Report Text: KFCI 211855Z AUTO 11003KT 10SM CLR 07/M06 A3029 RMK AO1
Loading
Personal Weather Stations






























Interactive Weather Map New forecast layout! Learn more

10-Day Weather Forecast

Advertisements
Track Severe Weather on mobile